Terminal Aerodrome Forecast
Issued by NWS

Home | Current Version | Previous Version | Text Only | Print | Product List | Glossary On
Versions: 1 2 3 4 5 6 7 8 9 10 11 12 13 14 15 16 17 18 19 20
000
FTUS43 KGRB 231135
TAFMTW
TAF
KMTW 231135Z 2312/2412 36016G24KT P6SM OVC012
      TEMPO 2312/2315 3SM -SN BKN008
     FM231500 35017G28KT P6SM -SN OVC020
     FM232200 33014G23KT P6SM SCT050
     FM240000 33010KT P6SM SCT060=

USA.gov is the U.S. government's official web portal to all federal, state and local government web resources and services.